Time;durP1;ratioP1;P1;durP2;ratioP2;P2;SDS_P1;SDS_P2;PMS_P1;PMS_P2;Temp;Humidity;BMP_temperature;BMP_pressure;BME280_temperature;BME280_humidity;BME280_pressure;Samples;Min_cycle;Max_cycle;Signal;HPM_P1;HPM_P2
2022/12/16 00:01:13;;;;;;;48.65;29.20;;;-0.60;99.90;;;;;;5072970;28;20488;-78
2022/12/16 00:03:40;;;;;;;48.45;26.30;;;-0.60;99.90;;;;;;5073152;28;20055;-76
2022/12/16 00:06:07;;;;;;;48.55;27.42;;;-0.60;99.90;;;;;;5072950;28;20051;-76
2022/12/16 00:08:35;;;;;;;46.75;27.88;;;-0.60;99.90;;;;;;5076729;28;20492;-78
2022/12/16 00:11:01;;;;;;;46.67;27.70;;;-0.50;99.90;;;;;;5076807;28;20044;-76
2022/12/16 00:13:29;;;;;;;51.20;27.45;;;-0.50;99.90;;;;;;5076784;28;20041;-76
2022/12/16 00:15:55;;;;;;;45.38;26.25;;;-0.50;99.90;;;;;;5076524;28;20041;-76
2022/12/16 00:18:21;;;;;;;46.03;27.55;;;-0.60;99.90;;;;;;5076750;28;20105;-75
2022/12/16 00:20:49;;;;;;;48.45;25.40;;;-0.50;99.90;;;;;;5076596;28;20048;-78
2022/12/16 00:23:14;;;;;;;44.50;26.35;;;-0.50;99.90;;;;;;5076193;28;20131;-76
2022/12/16 00:25:44;;;;;;;44.55;26.13;;;-0.50;99.90;;;;;;5076328;28;20123;-78
2022/12/16 00:28:12;;;;;;;47.22;27.17;;;-0.50;99.90;;;;;;5076495;28;20041;-75
2022/12/16 00:30:37;;;;;;;47.25;27.35;;;-0.60;99.90;;;;;;5076435;28;20047;-77
2022/12/16 00:33:04;;;;;;;48.00;28.27;;;-0.50;99.90;;;;;;5076399;28;20048;-75
2022/12/16 00:35:29;;;;;;;45.63;27.13;;;-0.50;99.90;;;;;;5076456;28;20081;-76
2022/12/16 00:37:56;;;;;;;43.47;26.52;;;-0.50;99.90;;;;;;5076366;28;20119;-76
2022/12/16 00:40:21;;;;;;;48.28;26.63;;;-0.50;99.90;;;;;;5076258;28;20056;-75
2022/12/16 00:42:47;;;;;;;46.90;27.50;;;-0.50;99.90;;;;;;5076302;28;20040;-75
2022/12/16 00:45:13;;;;;;;50.78;26.27;;;-0.10;99.90;;;;;;5075006;28;20476;-76
2022/12/16 00:47:38;;;;;;;46.25;26.55;;;-0.50;99.90;;;;;;5076215;28;20123;-76
2022/12/16 00:50:05;;;;;;;47.65;27.05;;;-0.50;99.90;;;;;;5076131;28;20499;-76
2022/12/16 00:52:30;;;;;;;42.17;25.20;;;-0.50;99.90;;;;;;5076157;28;20040;-76
2022/12/16 00:54:56;;;;;;;43.30;26.30;;;-0.50;99.90;;;;;;5075904;28;20047;-75
2022/12/16 00:57:21;;;;;;;46.10;24.70;;;-0.50;99.90;;;;;;5076013;28;20052;-76
2022/12/16 00:59:47;;;;;;;48.17;27.48;;;-0.50;99.90;;;;;;5076453;28;20159;-77
2022/12/16 01:02:13;;;;;;;48.78;26.35;;;-0.50;99.90;;;;;;5075921;28;20044;-76
2022/12/16 01:04:39;;;;;;;48.00;28.08;;;-0.50;99.90;;;;;;5075795;28;20051;-75
2022/12/16 01:07:05;;;;;;;46.30;27.65;;;-0.50;99.90;;;;;;5075823;28;20071;-76
2022/12/16 01:09:30;;;;;;;44.38;25.92;;;-0.50;99.90;;;;;;5075792;28;20040;-75
2022/12/16 01:11:56;;;;;;;45.22;26.27;;;-0.60;99.90;;;;;;5075721;28;20082;-74
2022/12/16 01:14:22;;;;;;;44.75;26.02;;;-0.60;99.90;;;;;;5075705;28;20106;-76
2022/12/16 01:16:47;;;;;;;49.55;26.42;;;-0.60;99.90;;;;;;5075655;28;20049;-76
2022/12/16 01:19:13;;;;;;;50.03;26.38;;;-0.60;99.90;;;;;;5075284;28;20040;-75
2022/12/16 01:21:39;;;;;;;50.78;26.95;;;-0.40;99.90;;;;;;5075583;28;20123;-76
2022/12/16 01:24:05;;;;;;;51.50;28.13;;;-0.10;99.90;;;;;;5075029;28;20134;-74
2022/12/16 01:26:30;;;;;;;53.47;26.92;;;-0.60;99.90;;;;;;5075464;28;20059;-77
2022/12/16 01:28:56;;;;;;;52.08;28.88;;;-0.60;99.90;;;;;;5074565;28;20037;-77
2022/12/16 01:31:23;;;;;;;44.13;26.20;;;-0.60;99.90;;;;;;5075620;28;20131;-75
2022/12/16 01:33:49;;;;;;;48.78;26.23;;;-0.50;99.90;;;;;;5075376;28;20048;-76
2022/12/16 01:36:15;;;;;;;49.60;25.53;;;-0.60;99.90;;;;;;5075327;28;20052;-76
2022/12/16 01:38:43;;;;;;;52.97;27.03;;;0.90;99.90;;;;;;5075148;28;20294;-75
2022/12/16 01:41:10;;;;;;;45.25;26.88;;;0.10;99.90;;;;;;5074897;28;20286;-75
2022/12/16 01:43:37;;;;;;;53.75;27.67;;;-0.60;99.90;;;;;;5073940;28;20074;-75
2022/12/16 01:46:29;;;;;;;49.05;27.20;;;-0.60;99.90;;;;;;5073813;28;20511;-77
2022/12/16 01:49:02;;;;;;;54.80;27.20;;;-0.60;99.90;;;;;;5073028;28;20088;-77
2022/12/16 01:51:35;;;;;;;50.58;28.38;;;-0.70;99.90;;;;;;5075179;28;20056;-77
2022/12/16 01:54:12;;;;;;;53.33;28.67;;;-0.70;99.90;;;;;;5075057;28;20071;-75
2022/12/16 01:56:42;;;;;;;49.92;27.60;;;-0.70;99.90;;;;;;5075150;28;20052;-77
2022/12/16 01:59:09;;;;;;;54.10;28.88;;;-0.70;99.90;;;;;;5074869;28;20041;-75
2022/12/16 02:01:35;;;;;;;57.65;28.65;;;-0.70;99.90;;;;;;5074366;28;20133;-76
2022/12/16 02:04:02;;;;;;;52.20;29.17;;;-0.70;99.90;;;;;;5074587;28;20504;-76
2022/12/16 02:06:29;;;;;;;49.65;27.45;;;-0.70;99.90;;;;;;5074494;28;20052;-76
2022/12/16 02:08:57;;;;;;;;;;;-0.70;99.90;;;;;;5074861;28;20090;-74
2022/12/16 02:11:31;;;;;;;51.43;27.70;;;-0.70;99.90;;;;;;5074566;28;19924;-76
2022/12/16 02:14:00;;;;;;;49.70;26.75;;;-0.70;99.90;;;;;;5074642;28;20044;-76
2022/12/16 02:16:37;;;;;;;48.13;28.00;;;-0.70;99.90;;;;;;5074062;28;20492;-76
2022/12/16 02:19:43;;;;;;;55.15;29.05;;;-0.70;99.90;;;;;;5074848;28;20060;-75
2022/12/16 02:22:14;;;;;;;51.05;27.92;;;-0.70;99.90;;;;;;5074435;28;20044;-75
2022/12/16 02:25:08;;;;;;;49.60;28.35;;;-0.70;99.90;;;;;;5074308;28;20048;-75
2022/12/16 02:27:36;;;;;;;57.40;27.10;;;-0.70;99.90;;;;;;5074615;28;20382;-76
2022/12/16 02:30:20;;;;;;;50.67;28.38;;;-0.70;99.90;;;;;;5073471;28;20048;-77
2022/12/16 02:33:10;;;;;;;54.63;29.20;;;-0.80;99.90;;;;;;5074305;28;20094;-77
2022/12/16 02:35:57;;;;;;;49.75;27.45;;;-0.70;99.90;;;;;;5073057;28;20512;-76
2022/12/16 02:38:40;;;;;;;49.47;27.92;;;-0.80;99.90;;;;;;5074379;28;20041;-76
2022/12/16 02:41:14;;;;;;;53.35;29.08;;;-0.80;99.90;;;;;;5074037;28;20087;-75
2022/12/16 02:43:54;;;;;;;50.38;27.98;;;-0.80;99.90;;;;;;5073917;28;20045;-76
2022/12/16 02:46:26;;;;;;;50.50;27.55;;;-0.80;99.90;;;;;;5074175;28;20050;-77
2022/12/16 02:48:53;;;;;;;53.95;28.58;;;-0.80;99.90;;;;;;5074049;28;20040;-77
2022/12/16 02:51:19;;;;;;;;;;;-0.80;99.90;;;;;;5074234;28;20049;-78
2022/12/16 02:53:47;;;;;;;55.58;28.80;;;-0.80;99.90;;;;;;5073847;28;19973;-77
2022/12/16 02:56:38;;;;;;;49.45;27.13;;;-0.80;99.90;;;;;;5073412;28;20040;-74
2022/12/16 02:59:15;;;;;;;52.75;27.02;;;-0.10;99.90;;;;;;5073798;28;20047;-77
2022/12/16 03:02:08;;;;;;;58.40;27.95;;;-0.80;99.90;;;;;;5073826;28;20067;-76
2022/12/16 03:04:42;;;;;;;49.75;29.23;;;-0.80;99.90;;;;;;5073587;28;20388;-75
2022/12/16 03:07:12;;;;;;;53.15;28.92;;;-0.80;99.90;;;;;;5073652;28;20044;-76
2022/12/16 03:09:39;;;;;;;55.30;28.17;;;-0.80;99.90;;;;;;5073926;28;20404;-76
2022/12/16 03:12:09;;;;;;;55.53;28.63;;;-0.80;99.90;;;;;;5073620;28;20040;-76
2022/12/16 03:14:39;;;;;;;59.63;29.17;;;-0.80;99.90;;;;;;5073612;28;20080;-77
2022/12/16 03:17:07;;;;;;;58.10;29.35;;;-0.80;99.90;;;;;;5073409;28;20076;-75
2022/12/16 03:19:34;;;;;;;51.75;28.35;;;-0.80;99.90;;;;;;5073392;28;20143;-77
2022/12/16 03:22:03;;;;;;;51.03;28.35;;;-0.40;99.90;;;;;;5073134;28;20045;-76
2022/12/16 03:24:29;;;;;;;51.35;28.27;;;-0.90;99.90;;;;;;5073174;28;20048;-76
2022/12/16 03:27:12;;;;;;;52.10;27.50;;;-0.90;99.90;;;;;;5073289;28;20045;-76
2022/12/16 03:30:00;;;;;;;54.22;29.05;;;-0.90;99.90;;;;;;5073190;28;20056;-75
2022/12/16 03:32:38;;;;;;;;;;;-0.90;99.90;;;;;;5073711;28;20056;-76
2022/12/16 03:35:23;;;;;;;49.17;27.38;;;-0.90;99.90;;;;;;5073159;28;19974;-75
2022/12/16 03:37:54;;;;;;;51.00;27.42;;;-0.90;99.90;;;;;;5072986;28;20044;-77
2022/12/16 03:40:21;;;;;;;54.70;28.05;;;-0.90;99.90;;;;;;5074007;28;20040;-76
2022/12/16 03:42:48;;;;;;;48.92;28.48;;;-0.90;99.90;;;;;;5077419;28;20045;-75
2022/12/16 03:45:16;;;;;;;;;;;-0.90;99.90;;;;;;5077594;28;20052;-77
2022/12/16 03:47:46;;;;;;;48.50;27.45;;;-0.90;99.90;;;;;;5077541;28;19926;-74
2022/12/16 03:50:12;;;;;;;54.75;28.02;;;-0.90;99.90;;;;;;5077305;28;20450;-76
2022/12/16 03:52:38;;;;;;;50.35;27.30;;;0.00;99.90;;;;;;5077137;28;20131;-77
2022/12/16 03:55:03;;;;;;;56.45;29.25;;;-0.90;99.90;;;;;;5077157;28;20043;-76
2022/12/16 03:57:29;;;;;;;47.22;26.67;;;-0.90;99.90;;;;;;5077169;28;20040;-76
2022/12/16 03:59:55;;;;;;;59.47;28.67;;;-0.80;99.90;;;;;;5077119;28;20036;-75
2022/12/16 04:02:20;;;;;;;54.00;28.75;;;-0.80;99.90;;;;;;5077061;28;20052;-75
2022/12/16 04:04:46;;;;;;;58.63;30.10;;;-0.80;99.90;;;;;;5076793;28;20381;-76
2022/12/16 04:07:20;;;;;;;56.30;29.65;;;-0.80;99.90;;;;;;5076587;28;20040;-74
2022/12/16 04:09:50;;;;;;;52.50;29.35;;;-0.80;99.90;;;;;;5076574;28;20033;-75
2022/12/16 04:26:08;;;;;;;57.88;29.50;;;-0.80;99.90;;;;;;5076469;28;20110;-76
2022/12/16 04:28:33;;;;;;;51.40;29.77;;;-0.80;99.90;;;;;;5076577;28;20045;-77
2022/12/16 04:30:59;;;;;;;56.63;30.42;;;-0.80;99.90;;;;;;5076297;28;20044;-75
